createdAt,value
2017-11-13T00:02:14.408Z,95.45
2017-11-13T00:04:41.994Z,95.45
2017-11-13T00:07:09.556Z,95.19
2017-11-13T00:09:37.134Z,94.38
2017-11-13T00:12:04.655Z,95.63
2017-11-13T00:14:31.478Z,94.63
2017-11-13T00:16:59.042Z,94.48
2017-11-13T00:19:25.910Z,95.45
2017-11-13T00:21:52.783Z,95.36
2017-11-13T00:24:20.349Z,95.04
2017-11-13T00:26:47.205Z,94.29
2017-11-13T00:29:14.048Z,94.62
2017-11-13T00:31:40.927Z,95.31
2017-11-13T00:34:07.767Z,94.71
2017-11-13T00:36:34.620Z,95.30
2017-11-13T00:39:01.480Z,94.96
2017-11-13T00:41:28.288Z,96.28
2017-11-13T00:43:56.042Z,95.42
2017-11-13T00:46:23.428Z,95.45
2017-11-13T00:48:50.685Z,95.06
2017-11-13T00:51:18.003Z,94.47
2017-11-13T00:53:44.935Z,95.27
2017-11-13T00:56:12.090Z,95.44
2017-11-13T00:58:39.581Z,95.54
2017-11-13T01:01:07.857Z,95.51
2017-11-13T01:03:35.122Z,95.60
2017-11-13T01:06:02.241Z,94.83
2017-11-13T01:08:29.492Z,95.05
2017-11-13T01:10:57.274Z,94.98
2017-11-13T01:13:25.174Z,95.26
2017-11-13T01:15:53.094Z,94.52
2017-11-13T01:18:20.195Z,94.94
2017-11-13T01:20:47.285Z,95.64
2017-11-13T01:23:14.655Z,95.83
2017-11-13T01:25:42.637Z,95.27
2017-11-13T01:28:10.656Z,94.86
2017-11-13T01:30:38.859Z,95.55
2017-11-13T01:33:07.195Z,95.80
2017-11-13T01:35:34.277Z,94.51
2017-11-13T01:38:02.058Z,94.33
2017-11-13T01:40:30.014Z,94.94
2017-11-13T01:42:57.073Z,94.41
2017-11-13T01:45:25.520Z,94.59
2017-11-13T01:47:53.327Z,94.77
2017-11-13T01:50:20.485Z,94.93
2017-11-13T01:52:48.961Z,94.93
2017-11-13T01:55:16.585Z,94.41
2017-11-13T01:57:43.574Z,93.77
2017-11-13T02:00:10.535Z,94.38
2017-11-13T02:02:37.391Z,95.06
2017-11-13T02:05:04.282Z,94.94
2017-11-13T02:07:31.233Z,95.47
2017-11-13T02:09:58.207Z,94.18
2017-11-13T02:12:25.096Z,94.77
2017-11-13T02:14:52.735Z,94.15
2017-11-13T02:17:19.605Z,94.10
2017-11-13T02:19:46.551Z,93.85
2017-11-13T02:22:13.525Z,93.42
2017-11-13T02:24:40.469Z,94.07
2017-11-13T02:27:07.411Z,94.11
2017-11-13T02:29:34.314Z,94.25
2017-11-13T02:32:01.219Z,94.26
2017-11-13T02:34:28.137Z,94.43
2017-11-13T02:36:55.047Z,93.59
2017-11-13T02:39:21.993Z,95.16
2017-11-13T02:41:49.653Z,94.33
2017-11-13T02:44:16.583Z,94.40
2017-11-13T02:46:43.512Z,94.75
2017-11-13T02:49:10.471Z,95.49
2017-11-13T02:51:37.428Z,93.89
2017-11-13T02:54:04.376Z,93.81
2017-11-13T02:56:31.232Z,94.32
2017-11-13T02:58:58.150Z,94.26
2017-11-13T03:01:24.978Z,94.76
2017-11-13T03:03:52.583Z,94.16
2017-11-13T03:06:19.459Z,94.50
2017-11-13T03:08:46.357Z,94.97
2017-11-13T03:11:13.268Z,95.34
2017-11-13T03:13:40.159Z,93.99
2017-11-13T03:16:07.010Z,94.06
2017-11-13T03:18:33.957Z,95.11
2017-11-13T03:21:00.842Z,95.00
2017-11-13T03:23:27.748Z,95.29
2017-11-13T03:25:55.368Z,95.04
2017-11-13T03:28:22.269Z,95.28
2017-11-13T03:30:49.161Z,94.52
2017-11-13T03:33:16.772Z,95.13
2017-11-13T03:35:43.595Z,94.70
2017-11-13T03:38:11.203Z,95.54
2017-11-13T03:40:38.072Z,95.26
2017-11-13T03:43:04.923Z,94.21
2017-11-13T03:45:31.801Z,94.19
2017-11-13T03:47:58.667Z,94.09
2017-11-13T03:50:25.473Z,94.40
2017-11-13T03:52:52.321Z,93.96
2017-11-13T03:55:19.181Z,94.58
2017-11-13T03:57:46.022Z,95.33
2017-11-13T04:00:12.890Z,95.81
2017-11-13T04:02:39.711Z,95.92
2017-11-13T04:05:06.606Z,96.41
2017-11-13T04:07:33.493Z,95.87
2017-11-13T04:10:00.397Z,95.21
2017-11-13T04:12:27.245Z,95.32
2017-11-13T04:14:54.825Z,94.75
2017-11-13T04:17:22.402Z,94.91
2017-11-13T04:19:49.317Z,94.84
2017-11-13T04:22:16.230Z,94.82
2017-11-13T04:24:43.066Z,95.92
2017-11-13T04:27:09.950Z,95.15
2017-11-13T04:29:36.849Z,96.27
2017-11-13T04:32:03.700Z,95.38
2017-11-13T04:34:30.566Z,95.39
2017-11-13T04:36:57.424Z,95.81
2017-11-13T04:39:24.267Z,94.61
2017-11-13T04:41:51.132Z,95.32
2017-11-13T04:44:18.017Z,94.85
2017-11-13T04:46:44.873Z,94.09
2017-11-13T04:49:11.713Z,95.35
2017-11-13T04:51:38.560Z,95.50
2017-11-13T04:54:05.449Z,94.55
2017-11-13T04:56:32.308Z,95.34
2017-11-13T04:58:59.196Z,95.78
2017-11-13T05:01:26.071Z,96.89
2017-11-13T05:03:52.922Z,95.36
2017-11-13T05:06:19.859Z,94.24
2017-11-13T05:08:46.727Z,95.37
2017-11-13T05:11:13.611Z,95.48
2017-11-13T05:13:40.501Z,95.93
2017-11-13T05:16:08.109Z,94.41
2017-11-13T05:18:35.051Z,95.97
2017-11-13T05:21:02.732Z,96.17
2017-11-13T05:23:30.352Z,94.65
2017-11-13T05:25:57.264Z,95.77
2017-11-13T05:28:24.904Z,94.74
2017-11-13T05:30:51.729Z,95.51
2017-11-13T05:33:18.606Z,95.88
2017-11-13T05:35:45.444Z,95.62
2017-11-13T05:38:12.345Z,95.63
2017-11-13T05:40:39.190Z,96.07
2017-11-13T05:43:06.052Z,96.14
2017-11-13T05:45:32.922Z,95.38
2017-11-13T05:47:59.809Z,95.10
2017-11-13T05:50:26.680Z,96.50
2017-11-13T05:52:53.565Z,96.59
2017-11-13T05:55:21.172Z,96.44
2017-11-13T05:57:48.032Z,96.16
2017-11-13T06:00:14.928Z,95.77
2017-11-13T06:02:41.784Z,95.19
2017-11-13T06:05:08.659Z,94.86
2017-11-13T06:07:35.530Z,95.92
2017-11-13T06:10:03.342Z,96.00
2017-11-13T06:12:30.977Z,95.82
2017-11-13T06:14:57.889Z,95.15
2017-11-13T06:17:24.908Z,95.45
2017-11-13T06:19:51.842Z,95.08
2017-11-13T06:22:18.713Z,94.42
2017-11-13T06:24:45.561Z,95.08
2017-11-13T06:27:12.442Z,95.31
2017-11-13T06:29:39.358Z,96.06
2017-11-13T06:32:06.945Z,95.55
2017-11-13T06:34:33.872Z,95.44
2017-11-13T06:37:00.740Z,95.84
2017-11-13T06:39:27.640Z,96.56
2017-11-13T06:41:54.470Z,95.78
2017-11-13T06:44:22.074Z,94.88
2017-11-13T06:46:48.938Z,94.68
2017-11-13T06:49:17.625Z,95.38
2017-11-13T06:51:45.280Z,95.23
2017-11-13T06:54:13.281Z,94.60
2017-11-13T06:56:40.162Z,95.42
2017-11-13T06:59:07.009Z,95.66
2017-11-13T07:01:34.595Z,95.17
2017-11-13T07:04:02.177Z,94.77
2017-11-13T07:06:29.020Z,94.45
2017-11-13T07:08:55.888Z,94.88
2017-11-13T07:11:23.501Z,94.55
2017-11-13T07:13:50.341Z,95.51
2017-11-13T07:16:17.184Z,94.90
2017-11-13T07:18:44.047Z,95.34
2017-11-13T07:21:11.642Z,95.47
2017-11-13T07:23:39.240Z,94.82
2017-11-13T07:26:06.093Z,95.59
2017-11-13T07:28:32.988Z,96.13
2017-11-13T07:30:59.876Z,95.32
2017-11-13T07:33:27.224Z,95.04
2017-11-13T07:35:54.115Z,95.38
2017-11-13T07:38:20.979Z,95.53
2017-11-13T07:40:48.577Z,95.02
2017-11-13T07:43:16.271Z,95.35
2017-11-13T07:45:43.204Z,96.36
2017-11-13T07:48:10.033Z,95.57
2017-11-13T07:50:36.862Z,95.88
2017-11-13T07:53:03.752Z,95.95
2017-11-13T07:55:30.589Z,96.06
2017-11-13T07:57:57.458Z,95.95
2017-11-13T08:00:24.334Z,96.73
2017-11-13T08:02:51.303Z,96.11
2017-11-13T08:05:18.146Z,96.25
2017-11-13T08:07:45.746Z,96.72
2017-11-13T08:10:12.648Z,96.91
2017-11-13T08:12:40.284Z,96.24
2017-11-13T08:15:07.129Z,96.01
2017-11-13T08:17:33.984Z,96.34
2017-11-13T08:20:00.847Z,96.97
2017-11-13T08:22:27.723Z,96.69
2017-11-13T08:24:54.640Z,97.01
2017-11-13T08:27:22.284Z,96.93
2017-11-13T08:29:49.236Z,97.33
2017-11-13T08:32:16.122Z,96.34
2017-11-13T08:34:43.045Z,96.68
2017-11-13T08:37:09.957Z,96.60
2017-11-13T08:39:37.561Z,96.41
2017-11-13T08:42:04.397Z,96.39
2017-11-13T08:44:31.989Z,96.49
2017-11-13T08:46:58.857Z,96.11
2017-11-13T08:49:25.725Z,96.12
2017-11-13T08:51:52.584Z,95.47
2017-11-13T08:54:19.504Z,95.13
2017-11-13T08:56:46.371Z,95.70
2017-11-13T08:59:13.244Z,96.32
2017-11-13T09:01:41.396Z,96.36
2017-11-13T09:04:08.253Z,96.37
2017-11-13T09:06:35.212Z,96.02
2017-11-13T09:09:04.538Z,95.76
2017-11-13T09:11:31.401Z,96.21
2017-11-13T09:13:58.312Z,95.80
2017-11-13T09:16:26.911Z,95.70
2017-11-13T09:18:59.077Z,95.77
2017-11-13T09:21:25.987Z,95.08
2017-11-13T09:23:52.932Z,95.11
2017-11-13T09:26:20.158Z,94.38
2017-11-13T09:28:47.834Z,94.38
2017-11-13T09:31:15.417Z,93.93
2017-11-13T09:33:42.478Z,94.77
2017-11-13T09:36:09.985Z,92.80
2017-11-13T09:38:37.700Z,92.46
2017-11-13T09:41:04.984Z,93.32
2017-11-13T09:43:32.017Z,91.88
2017-11-13T09:45:59.723Z,92.21
2017-11-13T09:48:28.519Z,90.97
2017-11-13T09:50:56.560Z,91.82
2017-11-13T09:53:23.520Z,91.92
2017-11-13T09:55:50.631Z,93.11
2017-11-13T09:58:18.649Z,91.76
2017-11-13T10:00:52.080Z,92.89
2017-11-13T10:03:24.333Z,91.33
2017-11-13T10:05:51.417Z,92.29
2017-11-13T10:08:18.443Z,90.86
2017-11-13T10:10:51.040Z,90.46
2017-11-13T10:13:21.166Z,89.85
2017-11-13T10:15:48.224Z,91.39
2017-11-13T10:18:16.860Z,90.99
2017-11-13T10:20:45.899Z,91.60
2017-11-13T10:23:12.773Z,93.10
2017-11-13T10:25:42.631Z,92.61
2017-11-13T10:28:09.788Z,90.96
2017-11-13T10:30:37.017Z,90.63
2017-11-13T10:33:05.157Z,90.83
2017-11-13T10:35:37.689Z,90.66
2017-11-13T10:38:09.869Z,90.29
2017-11-13T10:40:36.765Z,90.32
2017-11-13T10:43:03.817Z,89.90
2017-11-13T10:45:31.165Z,89.92
2017-11-13T10:48:03.335Z,89.00
2017-11-13T10:50:30.620Z,89.17
2017-11-13T10:53:03.597Z,88.10
2017-11-13T10:55:33.021Z,89.04
2017-11-13T10:58:00.413Z,88.63
2017-11-13T11:00:34.839Z,88.48
2017-11-13T11:03:02.146Z,86.99
2017-11-13T11:05:29.140Z,88.92
2017-11-13T11:08:00.140Z,86.18
2017-11-13T11:10:36.520Z,86.52
2017-11-13T11:13:03.752Z,85.56
2017-11-13T11:15:43.558Z,85.93
2017-11-13T11:18:14.494Z,86.75
2017-11-13T11:20:47.408Z,87.03
2017-11-13T11:23:20.114Z,86.83
2017-11-13T11:25:48.076Z,84.06
2017-11-13T11:28:22.929Z,87.22
2017-11-13T11:30:53.258Z,82.59
2017-11-13T11:33:22.310Z,84.82
2017-11-13T11:36:10.345Z,84.28
2017-11-13T11:38:40.222Z,84.53
2017-11-13T11:41:08.848Z,85.66
2017-11-13T11:43:41.176Z,81.56
2017-11-13T11:46:23.977Z,84.01
2017-11-13T11:48:54.230Z,82.21
2017-11-13T11:51:21.665Z,83.29
2017-11-13T11:53:50.251Z,82.00
2017-11-13T11:56:18.998Z,82.86
2017-11-13T11:58:51.354Z,83.19
2017-11-13T12:01:18.428Z,82.36
2017-11-13T12:03:45.459Z,83.34
2017-11-13T12:06:13.238Z,83.83
2017-11-13T12:08:46.465Z,83.21
2017-11-13T12:11:13.625Z,84.66
2017-11-13T12:13:54.878Z,85.90
2017-11-13T12:16:28.252Z,84.95
2017-11-13T12:19:00.951Z,84.45
2017-11-13T12:21:28.434Z,82.23
2017-11-13T12:23:55.731Z,85.06
2017-11-13T12:26:29.031Z,85.05
2017-11-13T12:28:56.867Z,80.89
2017-11-13T12:31:24.173Z,80.41
2017-11-13T12:33:52.007Z,79.99
2017-11-13T12:36:25.661Z,82.46
2017-11-13T12:38:52.828Z,84.07
2017-11-13T12:41:20.248Z,81.70
2017-11-13T12:43:47.483Z,79.90
2017-11-13T12:46:14.714Z,80.14
2017-11-13T12:48:46.993Z,80.12
2017-11-13T12:51:14.532Z,81.60
2017-11-13T12:53:41.926Z,82.07
2017-11-13T12:56:09.470Z,81.61
2017-11-13T12:58:36.785Z,80.38
2017-11-13T13:01:05.515Z,79.73
2017-11-13T13:03:32.481Z,79.49
2017-11-13T13:06:05.125Z,79.34
2017-11-13T13:08:34.155Z,81.20
2017-11-13T13:13:35.471Z,79.98
2017-11-13T13:16:03.331Z,80.04
2017-11-13T13:18:31.002Z,79.16
2017-11-13T13:20:59.736Z,80.77
2017-11-13T13:23:31.817Z,80.53
2017-11-13T13:25:59.728Z,78.64
2017-11-13T13:28:32.546Z,80.84
2017-11-13T13:31:00.973Z,79.93
2017-11-13T13:33:29.450Z,80.32
2017-11-13T13:36:02.736Z,80.78
2017-11-13T13:38:37.011Z,81.48
2017-11-13T13:41:04.874Z,81.23
2017-11-13T13:43:32.957Z,80.62
2017-11-13T13:46:04.187Z,81.25
2017-11-13T13:48:31.758Z,80.30
2017-11-13T13:51:04.125Z,80.77
2017-11-13T13:53:31.917Z,82.21
2017-11-13T13:56:23.214Z,80.58
2017-11-13T13:59:09.474Z,83.39
2017-11-13T14:01:39.519Z,83.93
2017-11-13T14:04:07.306Z,80.64
2017-11-13T14:06:34.701Z,81.92
2017-11-13T14:09:01.736Z,81.42
2017-11-13T14:11:28.896Z,79.86
2017-11-13T14:13:57.132Z,79.78
2017-11-13T14:16:24.221Z,80.15
2017-11-13T14:18:51.265Z,80.13
2017-11-13T14:21:21.054Z,83.15
2017-11-13T14:23:49.469Z,80.38
2017-11-13T14:26:26.600Z,82.32
2017-11-13T14:28:55.143Z,80.69
2017-11-13T14:31:22.083Z,80.11
2017-11-13T14:34:13.477Z,81.38
2017-11-13T14:36:40.364Z,80.74
2017-11-13T14:39:07.288Z,81.00
2017-11-13T14:41:34.271Z,81.57
2017-11-13T14:44:02.372Z,80.86
2017-11-13T14:46:29.281Z,81.54
2017-11-13T14:48:56.173Z,80.23
2017-11-13T14:51:23.064Z,79.39
2017-11-13T14:53:49.911Z,80.09
2017-11-13T14:56:16.877Z,80.85
2017-11-13T14:58:43.733Z,81.42
2017-11-13T15:01:11.591Z,81.27
2017-11-13T15:03:38.478Z,82.19
2017-11-13T15:06:05.370Z,81.61
2017-11-13T15:08:32.202Z,80.97
2017-11-13T15:10:59.023Z,80.82
2017-11-13T15:13:25.966Z,80.35
2017-11-13T15:15:52.816Z,82.76
2017-11-13T15:18:19.757Z,82.17
2017-11-13T15:20:46.615Z,80.81
2017-11-13T15:23:13.690Z,82.14
2017-11-13T15:25:40.517Z,82.47
2017-11-13T15:28:07.717Z,83.33
2017-11-13T15:30:34.562Z,82.19
2017-11-13T15:33:01.432Z,82.43
2017-11-13T15:35:28.287Z,83.20
2017-11-13T15:37:55.792Z,82.14
2017-11-13T15:40:22.881Z,83.97
2017-11-13T15:42:49.776Z,83.72
2017-11-13T15:45:16.690Z,84.56
2017-11-13T15:47:43.589Z,85.30
2017-11-13T15:50:10.483Z,85.43
2017-11-13T15:52:37.346Z,85.06
2017-11-13T15:55:04.267Z,85.15
2017-11-13T15:57:31.153Z,85.03
2017-11-13T15:59:58.031Z,84.89
2017-11-13T16:02:24.881Z,85.33
2017-11-13T16:04:51.793Z,85.21
2017-11-13T16:07:18.679Z,84.67
2017-11-13T16:09:45.544Z,85.02
2017-11-13T16:12:13.209Z,85.33
2017-11-13T16:14:40.983Z,85.60
2017-11-13T16:17:07.853Z,85.31
2017-11-13T16:19:35.452Z,85.27
2017-11-13T16:22:02.316Z,86.66
2017-11-13T16:24:29.183Z,86.04
2017-11-13T16:26:56.050Z,86.24
2017-11-13T16:29:23.248Z,86.82
2017-11-13T16:31:50.160Z,87.68
2017-11-13T16:34:19.333Z,87.26
2017-11-13T16:37:01.773Z,86.94
2017-11-13T16:39:28.777Z,88.02
2017-11-13T16:41:56.405Z,88.60
2017-11-13T16:44:23.339Z,87.62
2017-11-13T16:46:50.226Z,89.64
2017-11-13T16:49:17.864Z,88.90
2017-11-13T16:51:48.093Z,88.99
2017-11-13T16:54:16.862Z,89.62
2017-11-13T16:56:43.942Z,89.34
2017-11-13T16:59:10.917Z,89.67
2017-11-13T17:01:38.818Z,89.99
2017-11-13T17:04:05.723Z,90.17
2017-11-13T17:06:32.646Z,89.19
2017-11-13T17:08:59.641Z,88.81
2017-11-13T17:26:18.612Z,88.72
2017-11-13T17:28:46.291Z,88.88
2017-11-13T17:31:13.178Z,90.95
2017-11-13T17:33:40.040Z,89.90
2017-11-13T17:36:06.921Z,89.95
2017-11-13T17:38:33.786Z,90.14
2017-11-13T17:41:00.639Z,90.64
2017-11-13T17:43:27.512Z,89.82
2017-11-13T17:58:49.892Z,89.47
2017-11-13T18:01:18.887Z,89.32
2017-11-13T18:04:12.373Z,89.12
2017-11-13T18:10:03.928Z,89.72
2017-11-13T18:13:11.845Z,90.43
2017-11-13T18:18:50.624Z,90.51
2017-11-13T18:21:35.209Z,90.17
2017-11-13T18:24:29.726Z,89.94
2017-11-13T18:40:07.702Z,90.59
2017-11-13T18:42:46.571Z,92.01
2017-11-13T18:45:13.476Z,91.14
2017-11-13T18:47:40.322Z,90.87
2017-11-13T18:50:08.056Z,91.34
2017-11-13T18:52:34.943Z,90.99
2017-11-13T18:55:01.809Z,91.56
2017-11-13T18:57:29.546Z,91.06
2017-11-13T18:59:56.477Z,91.96
2017-11-13T19:02:23.734Z,92.62
2017-11-13T19:04:50.679Z,91.95
2017-11-13T19:10:29.067Z,91.31
2017-11-13T19:12:56.059Z,93.02
2017-11-13T19:18:24.417Z,92.71
2017-11-13T19:20:52.151Z,92.21
2017-11-13T19:23:19.192Z,92.04
2017-11-13T19:25:46.090Z,92.91
2017-11-13T19:28:12.976Z,92.01
2017-11-13T19:30:40.505Z,92.18
2017-11-13T19:33:07.401Z,92.51
2017-11-13T19:35:34.283Z,92.33
2017-11-13T19:38:02.121Z,91.71
2017-11-13T19:40:29.029Z,92.63
2017-11-13T19:42:56.720Z,92.58
2017-11-13T19:45:25.540Z,92.61
2017-11-13T19:47:53.185Z,92.52
2017-11-13T19:50:21.852Z,93.33
2017-11-13T19:52:49.520Z,93.26
2017-11-13T19:55:16.621Z,92.58
2017-11-13T19:57:43.908Z,91.78
2017-11-13T20:00:10.921Z,92.01
2017-11-13T20:02:37.872Z,93.22
2017-11-13T20:05:04.873Z,93.16
2017-11-13T20:07:31.860Z,93.09
2017-11-13T20:09:58.813Z,92.15
2017-11-13T20:12:26.080Z,94.07
2017-11-13T20:14:53.004Z,92.93
2017-11-13T20:17:20.753Z,93.02
2017-11-13T20:19:48.557Z,92.78
2017-11-13T20:22:15.450Z,92.93
2017-11-13T20:24:42.306Z,92.61
2017-11-13T20:27:09.138Z,93.63
2017-11-13T20:29:37.115Z,93.31
2017-11-13T20:32:04.742Z,94.09
2017-11-13T20:34:31.605Z,93.68
2017-11-13T20:36:58.466Z,92.37
2017-11-13T20:39:25.320Z,92.15
2017-11-13T20:41:52.213Z,92.21
2017-11-13T20:44:19.106Z,92.82
2017-11-13T20:46:47.170Z,93.80
2017-11-13T20:49:14.068Z,93.74
2017-11-13T20:51:41.978Z,92.80
2017-11-13T20:54:08.910Z,93.69
2017-11-13T20:56:36.516Z,94.14
2017-11-13T20:59:03.375Z,94.29
2017-11-13T21:01:30.243Z,93.20
2017-11-13T21:03:57.654Z,92.08
2017-11-13T21:06:24.495Z,91.92
2017-11-13T21:08:51.334Z,93.86
2017-11-13T21:11:18.194Z,94.03
2017-11-13T21:13:45.040Z,93.18
2017-11-13T21:16:12.633Z,93.15
2017-11-13T21:18:39.494Z,93.96
2017-11-13T21:21:06.323Z,93.11
2017-11-13T21:23:33.113Z,92.52
2017-11-13T21:25:59.942Z,92.91
2017-11-13T21:28:26.762Z,93.61
2017-11-13T21:30:53.612Z,93.34
2017-11-13T21:33:20.520Z,92.94
2017-11-13T21:35:47.325Z,94.02
2017-11-13T21:38:14.765Z,92.68
2017-11-13T21:40:41.643Z,93.97
2017-11-13T21:43:09.266Z,93.22
2017-11-13T21:45:36.109Z,93.33
2017-11-13T21:48:03.023Z,93.58
2017-11-13T21:50:29.892Z,93.03
2017-11-13T21:52:57.474Z,93.93
2017-11-13T21:55:25.057Z,94.00
2017-11-13T21:57:52.623Z,94.00
2017-11-13T22:00:19.490Z,93.72
2017-11-13T22:02:47.054Z,92.86
2017-11-13T22:05:13.891Z,92.74
2017-11-13T22:07:40.715Z,93.51
2017-11-13T22:10:07.610Z,93.50
2017-11-13T22:12:34.510Z,94.17
2017-11-13T22:15:02.184Z,93.85
2017-11-13T22:17:29.022Z,94.18
2017-11-13T22:19:55.825Z,93.03
2017-11-13T22:22:23.389Z,93.69
2017-11-13T22:24:50.201Z,93.00
2017-11-13T22:27:17.019Z,92.57
2017-11-13T22:29:44.934Z,92.53
2017-11-13T22:32:11.804Z,92.05
2017-11-13T22:34:38.640Z,92.37
2017-11-13T22:37:06.385Z,92.61
2017-11-13T22:39:33.239Z,93.11
2017-11-13T22:42:00.316Z,92.27
2017-11-13T22:44:27.276Z,92.35
2017-11-13T22:46:54.912Z,92.47
2017-11-13T22:49:21.737Z,92.06
2017-11-13T22:51:49.068Z,91.95
2017-11-13T22:54:15.902Z,92.94
2017-11-13T22:56:42.754Z,93.53
2017-11-13T22:59:10.321Z,92.49
2017-11-13T23:01:37.881Z,92.87
2017-11-13T23:04:04.787Z,93.21
2017-11-13T23:06:31.651Z,92.88
2017-11-13T23:08:58.475Z,93.56
2017-11-13T23:11:25.929Z,94.17
2017-11-13T23:13:53.540Z,93.69
2017-11-13T23:16:21.119Z,94.98
2017-11-13T23:18:48.706Z,94.60
2017-11-13T23:21:16.535Z,95.59
2017-11-13T23:23:43.357Z,95.92
2017-11-13T23:26:10.265Z,95.20
2017-11-13T23:28:37.326Z,96.00
2017-11-13T23:31:06.352Z,95.28
2017-11-13T23:33:33.192Z,95.55
2017-11-13T23:36:00.100Z,94.01
2017-11-13T23:38:27.733Z,93.67
2017-11-13T23:40:54.872Z,93.92
2017-11-13T23:43:21.698Z,93.36
2017-11-13T23:45:48.552Z,93.33
2017-11-13T23:48:15.541Z,94.49
2017-11-13T23:50:43.093Z,93.73
2017-11-13T23:53:10.061Z,94.51
2017-11-13T23:55:37.439Z,94.07
2017-11-13T23:58:04.304Z,95.10
